Terminal Aerodrome Forecast
Issued by NWS

Home | Current Version | Previous Version | Text Only | Print | Product List | Glossary On
Versions: 1 2 3 4 5 6 7 8 9 10 11 12 13 14 15 16 17 18 19 20 21 22 23 24 25 26
305
FTAK31 PAFA 042327
TAFAMC
TAF
PAMC 042327Z 0500/0524 32010G20KT P6SM -SHRA VCTS SCT045CB BKN060
      BKN120
      TEMPO 0500/0504 -TSRA BKN045CB BKN080 BKN120
     FM050600 VRB04KT P6SM SCT045 SCT080 BKN120=

USA.gov is the U.S. government's official web portal to all federal, state and local government web resources and services.